createdAt,value
2022-08-10T00:00:56.942Z,86.60
2022-08-10T00:03:23.809Z,87.60
2022-08-10T00:05:52.849Z,88.90
2022-08-10T00:10:51.995Z,80.10
2022-08-10T00:13:18.835Z,78.70
2022-08-10T00:15:53.684Z,77.90
2022-08-10T00:18:34.212Z,77.80
2022-08-10T00:21:07.405Z,77.70
2022-08-10T00:23:37.106Z,77.90
2022-08-10T00:26:05.315Z,76.70
2022-08-10T00:28:32.457Z,77.30
2022-08-10T00:30:59.359Z,77.70
2022-08-10T00:33:26.418Z,76.60
2022-08-10T00:35:53.451Z,76.10
2022-08-10T00:38:20.376Z,76.90
2022-08-10T00:40:47.268Z,76.80
2022-08-10T00:43:14.089Z,76.80
2022-08-10T00:45:40.951Z,77.30
2022-08-10T00:48:07.797Z,75.80
2022-08-10T00:50:34.752Z,76.20
2022-08-10T00:53:01.959Z,76.90
2022-08-10T00:55:29.011Z,77.70
2022-08-10T00:57:56.577Z,77.30
2022-08-10T01:00:26.223Z,75.40
2022-08-10T01:02:53.233Z,76.00
2022-08-10T01:05:21.449Z,76.10
2022-08-10T01:07:56.906Z,77.20
2022-08-10T01:10:46.529Z,76.10
2022-08-10T01:13:43.929Z,75.80
2022-08-10T01:16:45.941Z,76.60
2022-08-10T01:19:27.637Z,76.80
2022-08-10T01:22:26.274Z,75.70
2022-08-10T01:26:12.461Z,75.90
2022-08-10T01:29:08.057Z,77.30
2022-08-10T01:31:41.844Z,76.80
2022-08-10T01:34:14.717Z,77.30
2022-08-10T01:36:48.640Z,77.20
2022-08-10T01:39:23.742Z,77.30
2022-08-10T01:41:56.003Z,77.70
2022-08-10T01:44:33.860Z,77.50
2022-08-10T01:47:07.563Z,77.80
2022-08-10T01:49:35.053Z,77.90
2022-08-10T01:52:03.258Z,78.10
2022-08-10T01:54:31.260Z,78.10
2022-08-10T01:56:59.525Z,78.70
2022-08-10T01:59:32.637Z,78.70
2022-08-10T02:02:03.719Z,78.20
2022-08-10T02:04:34.284Z,77.30
2022-08-10T02:07:02.586Z,77.50
2022-08-10T02:09:36.729Z,77.30
2022-08-10T02:12:09.100Z,78.10
2022-08-10T02:14:43.023Z,77.60
2022-08-10T02:17:58.664Z,78.50
2022-08-10T02:20:07.363Z,78.90
2022-08-10T02:22:38.875Z,77.70
2022-08-10T02:25:41.034Z,77.60
2022-08-10T02:27:58.870Z,77.90
2022-08-10T02:30:27.943Z,78.00
2022-08-10T02:32:56.393Z,77.20
2022-08-10T02:35:24.185Z,77.60
2022-08-10T02:37:59.973Z,77.70
2022-08-10T02:42:18.889Z,78.00
2022-08-10T02:45:18.930Z,78.10
2022-08-10T02:46:34.654Z,78.40
2022-08-10T02:49:03.990Z,78.00
2022-08-10T02:52:07.074Z,78.20
2022-08-10T02:54:33.809Z,78.20
2022-08-10T02:57:10.030Z,78.00
2022-08-10T02:59:55.785Z,77.80
2022-08-10T03:02:32.226Z,79.50
2022-08-10T03:05:07.894Z,78.10
2022-08-10T03:07:47.795Z,78.20
2022-08-10T03:10:20.319Z,78.00
2022-08-10T03:12:55.206Z,78.60
2022-08-10T03:15:23.583Z,78.90
2022-08-10T03:17:57.517Z,78.70
2022-08-10T03:20:39.749Z,79.20
2022-08-10T03:23:14.026Z,78.40
2022-08-10T03:25:52.925Z,78.80
2022-08-10T03:28:30.105Z,78.60
2022-08-10T03:30:59.000Z,78.50
2022-08-10T03:33:28.833Z,77.90
2022-08-10T03:36:40.074Z,78.70
2022-08-10T03:38:42.922Z,78.50
2022-08-10T03:41:15.927Z,79.20
2022-08-10T03:43:48.735Z,79.80
2022-08-10T03:46:18.846Z,79.10
2022-08-10T03:48:49.694Z,78.40
2022-08-10T03:51:18.984Z,78.40
2022-08-10T03:54:04.539Z,78.60
2022-08-10T03:56:35.881Z,78.30
2022-08-10T03:59:02.952Z,78.80
2022-08-10T04:02:44.919Z,79.20
2022-08-10T04:04:22.778Z,79.40
2022-08-10T04:06:55.759Z,80.10
2022-08-10T04:09:53.986Z,79.80
2022-08-10T04:12:18.340Z,78.30
2022-08-10T04:14:50.827Z,79.30
2022-08-10T04:18:03.176Z,78.40
2022-08-10T04:20:17.753Z,78.40
2022-08-10T04:22:52.035Z,78.30
2022-08-10T04:25:20.708Z,77.40
2022-08-10T04:27:48.400Z,78.10
2022-08-10T04:30:15.547Z,77.70
2022-08-10T04:32:44.836Z,77.50
2022-08-10T04:35:13.733Z,77.10
2022-08-10T04:37:43.422Z,77.90
2022-08-10T04:40:28.660Z,77.10
2022-08-10T04:43:10.511Z,76.90
2022-08-10T04:45:48.433Z,76.70
2022-08-10T04:48:40.982Z,76.30
2022-08-10T04:51:17.844Z,76.80
2022-08-10T04:54:05.721Z,76.40
2022-08-10T04:56:38.831Z,75.90
2022-08-10T04:59:07.513Z,75.30
2022-08-10T05:02:30.573Z,76.30
2022-08-10T05:04:35.577Z,75.20
2022-08-10T05:07:11.185Z,74.40
2022-08-10T05:10:04.002Z,74.40
2022-08-10T05:12:31.053Z,74.30
2022-08-10T05:14:57.949Z,74.40
2022-08-10T05:17:24.935Z,74.40
2022-08-10T05:20:02.359Z,73.60
2022-08-10T05:22:37.745Z,73.80
2022-08-10T05:25:07.161Z,72.60
2022-08-10T05:27:34.668Z,72.60
2022-08-10T05:30:03.459Z,71.70
2022-08-10T05:32:55.249Z,71.20
2022-08-10T05:35:20.289Z,69.60
2022-08-10T05:38:12.831Z,69.30
2022-08-10T05:43:03.226Z,67.00
2022-08-10T05:45:30.123Z,66.70
2022-08-10T05:48:57.175Z,65.10
2022-08-10T05:50:44.070Z,65.90
2022-08-10T05:53:59.134Z,66.60
2022-08-10T05:55:57.795Z,67.90
2022-08-10T05:58:25.006Z,67.50
2022-08-10T06:00:54.093Z,68.20
2022-08-10T06:03:26.302Z,68.00
2022-08-10T06:05:55.268Z,67.30
2022-08-10T06:12:23.693Z,64.10
2022-08-10T06:13:59.988Z,66.00
2022-08-10T06:16:36.301Z,65.20
2022-08-10T06:19:04.293Z,64.50
2022-08-10T06:21:33.167Z,64.40
2022-08-10T06:24:02.152Z,62.90
2022-08-10T06:26:29.384Z,64.90
2022-08-10T06:29:02.879Z,63.40
2022-08-10T06:31:47.812Z,63.70
2022-08-10T06:34:20.832Z,64.20
2022-08-10T06:36:49.006Z,63.00
2022-08-10T06:39:32.833Z,62.80
2022-08-10T06:42:17.530Z,62.20
2022-08-10T06:45:00.274Z,60.90
2022-08-10T06:47:45.883Z,62.80
2022-08-10T06:50:17.379Z,62.20
2022-08-10T06:53:03.734Z,63.70
2022-08-10T06:55:50.073Z,62.80
2022-08-10T06:58:26.777Z,61.20
2022-08-10T07:00:56.297Z,63.10
2022-08-10T07:03:31.322Z,64.00
2022-08-10T07:05:59.885Z,61.70
2022-08-10T07:08:31.362Z,62.80
2022-08-10T07:10:59.323Z,62.60
2022-08-10T07:14:14.085Z,60.00
2022-08-10T07:16:16.240Z,61.40
2022-08-10T07:18:44.392Z,61.80
2022-08-10T07:21:13.288Z,61.80
2022-08-10T07:23:56.973Z,61.40
2022-08-10T07:26:27.697Z,62.70
2022-08-10T07:28:55.891Z,61.60
2022-08-10T07:31:54.621Z,59.60
2022-08-10T07:34:11.420Z,61.00
2022-08-10T07:36:40.570Z,62.10
2022-08-10T07:39:09.485Z,65.30
2022-08-10T07:41:41.451Z,60.80
2022-08-10T07:44:10.632Z,61.20
2022-08-10T07:46:45.777Z,60.30
2022-08-10T07:49:19.816Z,59.00
2022-08-10T07:51:54.696Z,60.50
2022-08-10T07:54:25.179Z,62.10
2022-08-10T07:56:55.467Z,61.40
2022-08-10T07:59:37.469Z,60.80
2022-08-10T08:02:07.875Z,60.40
2022-08-10T08:04:36.542Z,63.40
2022-08-10T08:07:03.571Z,62.20
2022-08-10T08:09:31.848Z,62.00
2022-08-10T08:12:00.541Z,60.90
2022-08-10T08:14:28.424Z,62.70
2022-08-10T08:16:55.812Z,59.80
2022-08-10T08:19:28.031Z,58.10
2022-08-10T08:24:05.068Z,58.60
2022-08-10T08:24:52.136Z,57.90
2022-08-10T08:27:20.993Z,58.60
2022-08-10T08:29:49.781Z,56.90
2022-08-10T08:32:19.405Z,57.30
2022-08-10T08:34:48.254Z,57.90
2022-08-10T08:38:26.489Z,57.30
2022-08-10T08:40:07.619Z,57.90
2022-08-10T08:42:54.845Z,59.70
2022-08-10T08:45:32.824Z,58.30
2022-08-10T08:48:11.554Z,56.70
2022-08-10T08:51:08.380Z,56.80
2022-08-10T08:54:01.286Z,56.50
2022-08-10T08:57:02.878Z,56.40
2022-08-10T08:59:44.748Z,54.20
2022-08-10T09:02:33.816Z,55.90
2022-08-10T09:05:12.604Z,55.10
2022-08-10T09:08:03.081Z,53.40
2022-08-10T09:10:45.290Z,52.80
2022-08-10T09:13:14.878Z,54.50
2022-08-10T09:15:57.483Z,52.10
2022-08-10T09:19:03.178Z,53.60
2022-08-10T09:21:43.165Z,52.00
2022-08-10T09:24:33.879Z,51.10
2022-08-10T09:27:08.867Z,51.70
2022-08-10T09:29:46.772Z,51.80
2022-08-10T09:36:16.837Z,53.80
2022-08-10T09:36:23.506Z,52.80
2022-08-10T09:39:05.287Z,52.60
2022-08-10T09:41:59.747Z,53.20
2022-08-10T09:44:58.068Z,51.70
2022-08-10T09:48:01.779Z,53.50
2022-08-10T09:51:05.422Z,50.70
2022-08-10T09:53:56.065Z,51.70
2022-08-10T09:56:40.880Z,51.50
2022-08-10T10:00:01.591Z,52.20
2022-08-10T10:02:23.932Z,51.00
2022-08-10T10:05:08.441Z,51.20
2022-08-10T10:07:42.262Z,50.90
2022-08-10T10:10:29.632Z,50.40
2022-08-10T10:13:07.613Z,51.10
2022-08-10T10:15:48.184Z,49.30
2022-08-10T10:18:36.743Z,49.60
2022-08-10T10:21:55.150Z,48.90
2022-08-10T10:24:24.482Z,49.90
2022-08-10T10:26:59.793Z,51.20
2022-08-10T10:29:58.372Z,49.80
2022-08-10T10:32:46.280Z,50.00
2022-08-10T10:35:44.135Z,50.50
2022-08-10T10:38:12.908Z,50.10
2022-08-10T10:40:51.661Z,48.90
2022-08-10T10:43:58.891Z,48.30
2022-08-10T10:46:43.878Z,46.40
2022-08-10T10:49:15.614Z,48.60
2022-08-10T10:52:08.868Z,47.60
2022-08-10T10:54:46.689Z,49.30
2022-08-10T10:57:22.669Z,49.40
2022-08-10T11:00:11.185Z,48.30
2022-08-10T11:03:03.999Z,48.10
2022-08-10T11:05:38.062Z,47.00
2022-08-10T11:08:28.965Z,47.30
2022-08-10T11:11:25.316Z,46.80
2022-08-10T11:14:24.896Z,47.00
2022-08-10T11:17:05.325Z,46.00
2022-08-10T11:20:09.698Z,44.30
2022-08-10T11:23:01.464Z,44.80
2022-08-10T11:25:36.185Z,46.00
2022-08-10T11:28:12.777Z,45.80
2022-08-10T11:31:01.004Z,45.00
2022-08-10T11:34:03.962Z,44.50
2022-08-10T11:37:02.915Z,44.00
2022-08-10T11:39:48.620Z,44.80
2022-08-10T11:42:40.044Z,45.20
2022-08-10T11:45:18.169Z,44.50
2022-08-10T11:47:56.280Z,45.20
2022-08-10T11:50:28.484Z,45.80
2022-08-10T11:53:24.472Z,45.30
2022-08-10T11:55:56.034Z,45.00
2022-08-10T11:58:26.734Z,44.70
2022-08-10T12:00:56.300Z,44.80
2022-08-10T12:03:24.599Z,45.50
2022-08-10T12:05:55.113Z,45.80
2022-08-10T12:10:04.663Z,44.60
2022-08-10T12:11:22.510Z,45.90
2022-08-10T12:14:24.985Z,43.60
2022-08-10T12:17:00.443Z,46.00
2022-08-10T12:20:01.712Z,46.00
2022-08-10T12:22:33.980Z,45.40
2022-08-10T12:25:05.050Z,45.20
2022-08-10T12:27:53.496Z,45.40
2022-08-10T12:30:26.470Z,46.20
2022-08-10T12:33:02.234Z,44.50
2022-08-10T12:36:14.926Z,44.50
2022-08-10T12:38:51.944Z,45.30
2022-08-10T12:41:44.073Z,44.70
2022-08-10T12:44:18.022Z,45.50
2022-08-10T12:46:58.615Z,44.70
2022-08-10T12:49:28.164Z,47.10
2022-08-10T12:52:31.003Z,46.70
2022-08-10T12:55:00.616Z,45.60
2022-08-10T12:57:29.084Z,44.20
2022-08-10T12:59:59.731Z,44.50
2022-08-10T13:02:28.269Z,45.20
2022-08-10T13:04:58.920Z,44.40
2022-08-10T13:08:03.487Z,44.10
2022-08-10T13:10:18.367Z,45.60
2022-08-10T13:12:49.227Z,44.90
2022-08-10T13:15:48.956Z,46.10
2022-08-10T13:18:19.664Z,44.30
2022-08-10T13:20:52.048Z,44.70
2022-08-10T13:23:23.821Z,43.90
2022-08-10T13:25:51.895Z,44.50
2022-08-10T13:28:36.105Z,43.80
2022-08-10T13:31:16.684Z,43.30
2022-08-10T13:34:40.106Z,44.40
2022-08-10T13:36:47.572Z,43.60
2022-08-10T13:39:14.728Z,44.20
2022-08-10T13:41:44.255Z,45.50
2022-08-10T13:44:17.541Z,46.20
2022-08-10T13:46:52.202Z,45.20
2022-08-10T13:49:21.100Z,45.60
2022-08-10T13:51:54.324Z,45.30
2022-08-10T13:54:29.005Z,45.60
2022-08-10T13:56:56.020Z,45.50
2022-08-10T14:00:32.970Z,46.40
2022-08-10T14:02:21.445Z,43.80
2022-08-10T14:04:48.399Z,45.90
2022-08-10T14:07:17.254Z,45.00
2022-08-10T14:09:45.591Z,44.50
2022-08-10T14:12:13.332Z,44.60
2022-08-10T14:14:42.813Z,45.00
2022-08-10T14:17:11.324Z,45.90
2022-08-10T14:19:43.521Z,44.40
2022-08-10T14:22:17.034Z,44.70
2022-08-10T14:24:46.901Z,44.90
2022-08-10T14:27:17.580Z,45.10
2022-08-10T14:29:49.214Z,44.10
2022-08-10T14:32:20.006Z,44.50
2022-08-10T14:36:14.937Z,45.40
2022-08-10T14:37:42.428Z,45.10
2022-08-10T14:40:16.141Z,44.10
2022-08-10T14:42:53.788Z,44.40
2022-08-10T14:45:24.637Z,45.20
2022-08-10T14:47:59.382Z,44.50
2022-08-10T14:50:32.022Z,43.40
2022-08-10T14:53:11.000Z,43.90
2022-08-10T14:55:58.655Z,43.70
2022-08-10T14:58:31.640Z,45.20
2022-08-10T15:01:00.319Z,44.00
2022-08-10T15:04:02.337Z,43.90
2022-08-10T15:06:31.104Z,44.50
2022-08-10T15:09:19.407Z,44.70
2022-08-10T15:12:15.159Z,44.80
2022-08-10T15:14:46.053Z,44.10
2022-08-10T15:17:16.129Z,44.30
2022-08-10T15:20:02.380Z,44.90
2022-08-10T15:22:38.182Z,44.80
2022-08-10T15:25:18.815Z,45.00
2022-08-10T15:27:54.949Z,45.40
2022-08-10T15:30:30.496Z,45.20
2022-08-10T15:33:01.451Z,45.70
2022-08-10T15:35:29.921Z,45.60
2022-08-10T15:38:04.375Z,44.80
2022-08-10T15:40:39.107Z,45.10
2022-08-10T15:43:20.799Z,44.80
2022-08-10T15:45:56.281Z,45.00
2022-08-10T15:48:26.146Z,45.60
2022-08-10T15:51:05.640Z,45.40
2022-08-10T15:53:49.144Z,45.70
2022-08-10T15:56:39.606Z,46.00
2022-08-10T15:59:26.224Z,45.20
2022-08-10T16:02:13.563Z,45.50
2022-08-10T16:04:55.856Z,46.20
2022-08-10T16:07:45.346Z,45.60
2022-08-10T16:10:25.844Z,45.00
2022-08-10T16:14:00.006Z,45.30
2022-08-10T16:15:59.073Z,46.60
2022-08-10T16:18:32.114Z,45.20
2022-08-10T16:21:15.799Z,45.50
2022-08-10T16:24:02.124Z,44.80
2022-08-10T16:26:46.220Z,45.30
2022-08-10T16:29:15.798Z,44.70
2022-08-10T16:31:55.891Z,45.20
2022-08-10T16:34:24.581Z,45.60
2022-08-10T16:36:55.655Z,45.10
2022-08-10T16:39:58.443Z,44.90
2022-08-10T16:42:20.664Z,45.00
2022-08-10T16:45:24.901Z,44.60
2022-08-10T16:47:53.322Z,45.50
2022-08-10T16:50:27.420Z,45.10
2022-08-10T16:58:14.183Z,45.50
2022-08-10T17:00:44.349Z,45.70
2022-08-10T17:04:04.379Z,47.00
2022-08-10T17:06:11.005Z,46.40
2022-08-10T17:08:49.727Z,46.80
2022-08-10T17:11:19.769Z,48.30
2022-08-10T17:13:47.782Z,47.90
2022-08-10T17:16:17.173Z,49.00
2022-08-10T17:18:47.228Z,49.70
2022-08-10T17:23:46.758Z,53.80
2022-08-10T17:26:17.697Z,52.80
2022-08-10T17:28:54.302Z,53.50
2022-08-10T17:31:54.590Z,54.20
2022-08-10T17:34:23.389Z,59.30
2022-08-10T17:36:56.652Z,70.50
2022-08-10T17:51:56.487Z,75.00
2022-08-10T17:59:30.012Z,85.40
2022-08-10T18:04:35.623Z,87.10
2022-08-10T18:07:10.751Z,69.70
2022-08-10T18:12:17.534Z,73.30
2022-08-10T18:17:23.344Z,77.90
2022-08-10T18:19:59.733Z,78.90
2022-08-10T18:30:14.246Z,79.80
2022-08-10T18:32:46.470Z,57.60
2022-08-10T18:37:42.668Z,85.00
2022-08-10T18:50:43.641Z,90.90
2022-08-10T18:53:22.493Z,57.40
2022-08-10T18:56:09.336Z,57.70
2022-08-10T18:59:04.923Z,57.20
2022-08-10T19:01:46.961Z,57.60
2022-08-10T19:04:33.393Z,57.40
2022-08-10T19:07:28.143Z,57.90
2022-08-10T19:10:34.227Z,57.90
2022-08-10T19:13:12.511Z,58.20
2022-08-10T19:15:59.029Z,57.90
2022-08-10T19:18:28.914Z,57.40
2022-08-10T19:21:03.493Z,57.70
2022-08-10T19:23:32.814Z,59.70
2022-08-10T19:26:44.910Z,58.70
2022-08-10T19:30:10.035Z,57.80
2022-08-10T19:32:53.135Z,58.50
2022-08-10T19:36:03.052Z,58.00
2022-08-10T19:38:54.580Z,57.10
2022-08-10T19:41:32.703Z,58.30
2022-08-10T19:44:45.099Z,54.20
2022-08-10T19:47:28.728Z,58.20
2022-08-10T19:50:11.544Z,54.90
2022-08-10T19:53:19.247Z,54.50
2022-08-10T19:56:32.550Z,53.60
2022-08-10T19:59:07.964Z,52.20
2022-08-10T20:04:29.607Z,52.50
2022-08-10T20:07:05.219Z,53.90
2022-08-10T20:10:11.018Z,54.40
2022-08-10T20:12:37.959Z,54.50
2022-08-10T20:15:25.475Z,55.30
2022-08-10T20:18:00.797Z,57.10
2022-08-10T20:20:35.689Z,59.00
2022-08-10T20:28:20.961Z,94.80
2022-08-10T20:30:55.577Z,59.00
2022-08-10T20:33:34.895Z,58.80
2022-08-10T20:36:25.349Z,59.50
2022-08-10T20:39:27.585Z,59.00
2022-08-10T20:42:00.380Z,58.20
2022-08-10T20:44:48.220Z,56.50
2022-08-10T20:47:33.589Z,57.20
2022-08-10T20:50:28.442Z,55.80
2022-08-10T20:53:00.590Z,56.10
2022-08-10T20:55:52.696Z,56.00
2022-08-10T20:58:20.635Z,55.60
2022-08-10T21:01:13.806Z,55.00
2022-08-10T21:04:11.285Z,55.40
2022-08-10T21:06:46.576Z,55.70
2022-08-10T21:09:28.364Z,55.10
2022-08-10T21:12:19.909Z,55.90
2022-08-10T21:14:52.836Z,55.90
2022-08-10T21:18:07.756Z,55.60
2022-08-10T21:23:31.400Z,55.30
2022-08-10T21:26:15.668Z,56.50
2022-08-10T21:29:19.620Z,56.30
2022-08-10T21:32:06.623Z,56.40
2022-08-10T21:35:04.799Z,57.40
2022-08-10T21:37:56.985Z,57.00
2022-08-10T21:40:38.178Z,57.90
2022-08-10T21:43:22.464Z,58.80
2022-08-10T21:48:46.252Z,90.40
2022-08-10T21:52:02.226Z,61.00
2022-08-10T21:54:44.151Z,59.40
2022-08-10T21:57:23.390Z,58.80
2022-08-10T21:59:59.754Z,59.80
2022-08-10T22:02:31.962Z,60.70
2022-08-10T22:05:03.002Z,60.80
2022-08-10T22:07:33.415Z,60.20
2022-08-10T22:10:04.143Z,61.10
2022-08-10T22:12:38.001Z,60.20
2022-08-10T22:15:17.357Z,60.40
2022-08-10T22:18:03.462Z,61.50
2022-08-10T22:20:40.257Z,62.70
2022-08-10T22:23:22.112Z,61.80
2022-08-10T22:26:01.172Z,62.90
2022-08-10T22:28:28.022Z,62.30
2022-08-10T22:31:37.043Z,61.60
2022-08-10T22:34:06.783Z,62.90
2022-08-10T22:37:01.026Z,62.90
2022-08-10T22:40:07.296Z,63.90
2022-08-10T22:42:59.513Z,65.60
2022-08-10T22:45:33.601Z,65.10
2022-08-10T22:48:05.765Z,65.00
2022-08-10T22:50:33.605Z,64.70
2022-08-10T22:53:05.997Z,65.30
2022-08-10T22:55:40.520Z,66.40
2022-08-10T22:58:07.350Z,66.60
2022-08-10T23:00:35.460Z,67.20
2022-08-10T23:03:14.057Z,68.00
2022-08-10T23:05:54.279Z,67.50
2022-08-10T23:08:35.100Z,66.90
2022-08-10T23:11:08.444Z,66.30
2022-08-10T23:13:43.602Z,67.00
2022-08-10T23:16:15.577Z,66.60
2022-08-10T23:18:52.728Z,65.60
2022-08-10T23:21:22.966Z,66.40
2022-08-10T23:23:52.040Z,66.00
2022-08-10T23:26:28.795Z,65.10
2022-08-10T23:29:03.265Z,66.20
2022-08-10T23:31:50.240Z,66.40
2022-08-10T23:34:31.504Z,66.60
2022-08-10T23:36:59.718Z,67.90
2022-08-10T23:39:42.408Z,67.50
2022-08-10T23:42:14.159Z,68.20
2022-08-10T23:44:57.615Z,69.40
2022-08-10T23:47:27.058Z,67.50
2022-08-10T23:49:58.499Z,68.70
2022-08-10T23:52:32.312Z,68.80
2022-08-10T23:55:09.120Z,67.70
2022-08-10T23:57:41.840Z,69.50
